sensor_id;sensor_type;location;lat;lon;timestamp;pressure;altitude;pressure_sealevel;temperature;humidity
28267;BME280;15525;45.568;5.448;2023-04-21T00:00:50;97378.03;;;12.30;57.81
28267;BME280;15525;45.568;5.448;2023-04-21T00:03:16;97373.47;;;12.31;57.85
28267;BME280;15525;45.568;5.448;2023-04-21T00:05:44;97367.88;;;12.27;57.67
28267;BME280;15525;45.568;5.448;2023-04-21T00:08:09;97364.69;;;12.25;57.96
28267;BME280;15525;45.568;5.448;2023-04-21T00:10:35;97378.03;;;12.30;58.06
28267;BME280;15525;45.568;5.448;2023-04-21T00:13:00;97339.25;;;12.23;57.98
28267;BME280;15525;45.568;5.448;2023-04-21T00:15:25;97371.25;;;12.46;57.92
28267;BME280;15525;45.568;5.448;2023-04-21T00:17:51;97376.94;;;12.58;57.94
28267;BME280;15525;45.568;5.448;2023-04-21T00:20:16;97357.28;;;12.63;57.81
28267;BME280;15525;45.568;5.448;2023-04-21T00:22:42;97324.66;;;12.56;57.39
28267;BME280;15525;45.568;5.448;2023-04-21T00:25:08;97355.16;;;12.73;57.38
28267;BME280;15525;45.568;5.448;2023-04-21T00:27:33;97337.47;;;12.72;57.68
28267;BME280;15525;45.568;5.448;2023-04-21T00:29:59;97338.16;;;12.78;57.20
28267;BME280;15525;45.568;5.448;2023-04-21T00:32:24;97317.00;;;12.63;57.24
28267;BME280;15525;45.568;5.448;2023-04-21T00:34:50;97326.72;;;12.72;57.26
28267;BME280;15525;45.568;5.448;2023-04-21T00:37:15;97308.06;;;12.54;57.28
28267;BME280;15525;45.568;5.448;2023-04-21T00:39:41;97323.66;;;12.65;57.72
28267;BME280;15525;45.568;5.448;2023-04-21T00:42:06;97321.34;;;12.72;57.71
28267;BME280;15525;45.568;5.448;2023-04-21T00:44:31;97317.91;;;12.72;57.69
28267;BME280;15525;45.568;5.448;2023-04-21T00:46:57;97349.00;;;12.86;57.76
28267;BME280;15525;45.568;5.448;2023-04-21T00:49:23;97333.56;;;12.78;58.09
28267;BME280;15525;45.568;5.448;2023-04-21T00:51:49;97306.16;;;12.68;57.93
28267;BME280;15525;45.568;5.448;2023-04-21T00:54:16;97323.97;;;12.64;58.46
28267;BME280;15525;45.568;5.448;2023-04-21T00:56:42;97324.63;;;12.69;58.18
28267;BME280;15525;45.568;5.448;2023-04-21T00:59:08;97340.06;;;12.77;58.21
28267;BME280;15525;45.568;5.448;2023-04-21T01:01:33;97273.75;;;12.37;58.11
28267;BME280;15525;45.568;5.448;2023-04-21T01:04:01;97341.84;;;12.82;58.25
28267;BME280;15525;45.568;5.448;2023-04-21T01:06:31;97336.88;;;12.75;58.13
28267;BME280;15525;45.568;5.448;2023-04-21T01:08:58;97342.63;;;12.82;58.20
28267;BME280;15525;45.568;5.448;2023-04-21T01:11:23;97321.34;;;12.72;58.10
28267;BME280;15525;45.568;5.448;2023-04-21T01:13:52;97318.97;;;12.71;58.27
28267;BME280;15525;45.568;5.448;2023-04-21T01:16:21;97334.91;;;12.81;57.93
28267;BME280;15525;45.568;5.448;2023-04-21T01:18:48;97328.31;;;12.87;57.76
28267;BME280;15525;45.568;5.448;2023-04-21T01:21:15;97336.44;;;12.95;57.65
28267;BME280;15525;45.568;5.448;2023-04-21T01:23:41;97336.38;;;13.00;57.86
28267;BME280;15525;45.568;5.448;2023-04-21T01:26:06;97297.19;;;12.72;57.62
28267;BME280;15525;45.568;5.448;2023-04-21T01:28:32;97267.41;;;12.47;57.66
28267;BME280;15525;45.568;5.448;2023-04-21T01:30:57;97321.25;;;12.77;57.78
28267;BME280;15525;45.568;5.448;2023-04-21T01:33:23;97269.38;;;12.41;58.00
28267;BME280;15525;45.568;5.448;2023-04-21T01:35:48;97340.16;;;12.86;58.04
28267;BME280;15525;45.568;5.448;2023-04-21T01:38:14;97328.41;;;12.82;58.11
28267;BME280;15525;45.568;5.448;2023-04-21T01:40:45;97324.81;;;12.86;58.40
28267;BME280;15525;45.568;5.448;2023-04-21T01:43:12;97330.69;;;12.88;57.81
28267;BME280;15525;45.568;5.448;2023-04-21T01:45:38;97320.84;;;12.84;58.01
28267;BME280;15525;45.568;5.448;2023-04-21T01:48:03;97333.97;;;12.99;57.78
28267;BME280;15525;45.568;5.448;2023-04-21T01:50:29;97312.50;;;12.85;58.01
28267;BME280;15525;45.568;5.448;2023-04-21T01:52:54;97306.25;;;12.76;58.00
28267;BME280;15525;45.568;5.448;2023-04-21T01:55:19;97310.03;;;12.62;58.69
28267;BME280;15525;45.568;5.448;2023-04-21T01:57:45;97314.22;;;12.68;58.38
28267;BME280;15525;45.568;5.448;2023-04-21T02:00:11;97329.31;;;12.77;58.26
28267;BME280;15525;45.568;5.448;2023-04-21T02:02:36;97323.94;;;12.77;58.11
28267;BME280;15525;45.568;5.448;2023-04-21T02:05:02;97337.75;;;12.84;58.37
28267;BME280;15525;45.568;5.448;2023-04-21T02:07:28;97316.50;;;12.74;58.42
28267;BME280;15525;45.568;5.448;2023-04-21T02:09:53;97313.50;;;12.76;58.70
28267;BME280;15525;45.568;5.448;2023-04-21T02:12:19;97302.56;;;12.72;58.67
28267;BME280;15525;45.568;5.448;2023-04-21T02:14:44;97298.28;;;12.71;58.32
28267;BME280;15525;45.568;5.448;2023-04-21T02:17:12;97323.00;;;12.95;58.76
28267;BME280;15525;45.568;5.448;2023-04-21T02:19:37;97310.81;;;12.89;58.35
28267;BME280;15525;45.568;5.448;2023-04-21T02:22:03;97308.09;;;13.03;58.24
28267;BME280;15525;45.568;5.448;2023-04-21T02:24:28;97281.75;;;12.91;58.18
28267;BME280;15525;45.568;5.448;2023-04-21T02:26:54;97297.34;;;13.03;58.14
28267;BME280;15525;45.568;5.448;2023-04-21T02:29:19;97309.66;;;13.17;57.80
28267;BME280;15525;45.568;5.448;2023-04-21T02:31:44;97276.38;;;12.91;57.88
28267;BME280;15525;45.568;5.448;2023-04-21T02:34:10;97293.91;;;13.02;57.88
28267;BME280;15525;45.568;5.448;2023-04-21T02:36:35;97310.38;;;13.09;58.17
28267;BME280;15525;45.568;5.448;2023-04-21T02:39:00;97279.16;;;12.86;58.21
28267;BME280;15525;45.568;5.448;2023-04-21T02:41:27;97289.31;;;12.89;57.98
28267;BME280;15525;45.568;5.448;2023-04-21T02:43:53;97288.72;;;12.92;57.95
28267;BME280;15525;45.568;5.448;2023-04-21T02:46:18;97307.50;;;13.06;58.18
28267;BME280;15525;45.568;5.448;2023-04-21T02:48:44;97283.13;;;12.89;58.23
28267;BME280;15525;45.568;5.448;2023-04-21T02:51:13;97273.03;;;12.72;58.46
28267;BME280;15525;45.568;5.448;2023-04-21T02:53:39;97313.97;;;13.05;58.15
28267;BME280;15525;45.568;5.448;2023-04-21T02:56:06;97293.47;;;12.95;57.88
28267;BME280;15525;45.568;5.448;2023-04-21T02:58:34;97307.63;;;13.01;57.93
28267;BME280;15525;45.568;5.448;2023-04-21T03:01:00;97302.44;;;12.91;58.00
28267;BME280;15525;45.568;5.448;2023-04-21T03:03:25;97272.63;;;12.79;58.15
28267;BME280;15525;45.568;5.448;2023-04-21T03:05:58;97301.44;;;13.00;58.34
28267;BME280;15525;45.568;5.448;2023-04-21T03:08:24;97310.41;;;12.96;58.23
28267;BME280;15525;45.568;5.448;2023-04-21T03:10:51;97284.34;;;12.69;58.35
28267;BME280;15525;45.568;5.448;2023-04-21T03:13:16;97274.06;;;12.63;58.45
28267;BME280;15525;45.568;5.448;2023-04-21T03:15:42;97296.09;;;12.87;58.34
28267;BME280;15525;45.568;5.448;2023-04-21T03:18:08;97310.81;;;12.89;58.40
28267;BME280;15525;45.568;5.448;2023-04-21T03:20:33;97302.34;;;12.82;58.27
28267;BME280;15525;45.568;5.448;2023-04-21T03:22:59;97276.31;;;12.69;58.41
28267;BME280;15525;45.568;5.448;2023-04-21T03:25:24;97290.31;;;12.80;58.16
28267;BME280;15525;45.568;5.448;2023-04-21T03:27:52;97248.09;;;12.58;58.39
28267;BME280;15525;45.568;5.448;2023-04-21T03:30:20;97275.63;;;12.64;58.32
28267;BME280;15525;45.568;5.448;2023-04-21T03:32:45;97293.41;;;12.73;58.45
28267;BME280;15525;45.568;5.448;2023-04-21T03:35:10;97288.88;;;12.60;58.23
28267;BME280;15525;45.568;5.448;2023-04-21T03:37:36;97301.47;;;12.46;58.51
28267;BME280;15525;45.568;5.448;2023-04-21T03:40:03;97302.69;;;12.54;58.39
28267;BME280;15525;45.568;5.448;2023-04-21T03:42:30;97289.16;;;12.45;58.55
28267;BME280;15525;45.568;5.448;2023-04-21T03:44:56;97283.13;;;12.40;58.56
28267;BME280;15525;45.568;5.448;2023-04-21T03:47:25;97318.00;;;12.53;58.54
28267;BME280;15525;45.568;5.448;2023-04-21T03:49:50;97270.28;;;12.23;58.37
28267;BME280;15525;45.568;5.448;2023-04-21T03:52:16;97314.22;;;12.41;58.31
28267;BME280;15525;45.568;5.448;2023-04-21T03:54:41;97302.78;;;12.35;58.45
28267;BME280;15525;45.568;5.448;2023-04-21T03:57:06;97297.72;;;12.34;58.28
28267;BME280;15525;45.568;5.448;2023-04-21T03:59:32;97309.25;;;12.48;58.43
28267;BME280;15525;45.568;5.448;2023-04-21T04:01:57;97291.84;;;12.45;57.90
28267;BME280;15525;45.568;5.448;2023-04-21T04:04:23;97285.47;;;12.41;58.27
28267;BME280;15525;45.568;5.448;2023-04-21T04:06:48;97276.06;;;12.30;58.48
28267;BME280;15525;45.568;5.448;2023-04-21T04:09:13;97308.84;;;12.41;58.31
28267;BME280;15525;45.568;5.448;2023-04-21T04:11:39;97327.66;;;12.41;58.78
28267;BME280;15525;45.568;5.448;2023-04-21T04:14:04;97313.94;;;12.42;58.84
28267;BME280;15525;45.568;5.448;2023-04-21T04:16:30;97280.53;;;12.21;58.44
28267;BME280;15525;45.568;5.448;2023-04-21T04:18:55;97284.09;;;12.30;58.47
28267;BME280;15525;45.568;5.448;2023-04-21T04:21:21;97316.72;;;12.51;58.43
28267;BME280;15525;45.568;5.448;2023-04-21T04:23:49;97290.75;;;12.33;58.55
28267;BME280;15525;45.568;5.448;2023-04-21T04:26:15;97313.81;;;12.34;59.07
28267;BME280;15525;45.568;5.448;2023-04-21T04:28:41;97324.94;;;12.27;58.32
28267;BME280;15525;45.568;5.448;2023-04-21T04:31:06;97290.56;;;12.02;58.76
28267;BME280;15525;45.568;5.448;2023-04-21T04:33:32;97319.19;;;12.20;58.82
28267;BME280;15525;45.568;5.448;2023-04-21T04:35:57;97343.22;;;12.39;58.54
28267;BME280;15525;45.568;5.448;2023-04-21T04:38:23;97319.66;;;12.22;58.46
28267;BME280;15525;45.568;5.448;2023-04-21T04:40:53;97330.81;;;12.29;58.86
28267;BME280;15525;45.568;5.448;2023-04-21T04:43:19;97315.50;;;12.16;58.58
28267;BME280;15525;45.568;5.448;2023-04-21T04:45:44;97331.13;;;12.28;58.95
28267;BME280;15525;45.568;5.448;2023-04-21T04:48:10;97343.47;;;12.42;58.46
28267;BME280;15525;45.568;5.448;2023-04-21T04:50:35;97334.78;;;12.45;58.84
28267;BME280;15525;45.568;5.448;2023-04-21T04:53:01;97343.44;;;12.56;58.32
28267;BME280;15525;45.568;5.448;2023-04-21T04:55:26;97339.47;;;12.53;58.22
28267;BME280;15525;45.568;5.448;2023-04-21T04:57:51;97331.03;;;12.60;58.54
28267;BME280;15525;45.568;5.448;2023-04-21T05:00:17;97331.41;;;12.53;58.63
28267;BME280;15525;45.568;5.448;2023-04-21T05:02:43;97347.63;;;12.75;58.62
28267;BME280;15525;45.568;5.448;2023-04-21T05:05:08;97270.88;;;12.34;58.52
28267;BME280;15525;45.568;5.448;2023-04-21T05:07:34;97321.47;;;12.67;58.72
28267;BME280;15525;45.568;5.448;2023-04-21T05:09:59;97305.06;;;12.55;58.63
28267;BME280;15525;45.568;5.448;2023-04-21T05:12:25;97311.81;;;12.66;58.42
28267;BME280;15525;45.568;5.448;2023-04-21T05:14:50;97348.00;;;12.82;58.71
28267;BME280;15525;45.568;5.448;2023-04-21T05:17:16;97355.75;;;12.84;58.59
28267;BME280;15525;45.568;5.448;2023-04-21T05:19:41;97354.19;;;12.83;58.94
28267;BME280;15525;45.568;5.448;2023-04-21T05:22:07;97314.31;;;12.76;58.49
28267;BME280;15525;45.568;5.448;2023-04-21T05:24:33;97360.94;;;13.07;58.46
28267;BME280;15525;45.568;5.448;2023-04-21T05:26:58;97331.50;;;13.02;58.60
28267;BME280;15525;45.568;5.448;2023-04-21T05:29:24;97328.59;;;13.12;58.14
28267;BME280;15525;45.568;5.448;2023-04-21T05:31:50;97303.25;;;13.05;58.06
28267;BME280;15525;45.568;5.448;2023-04-21T05:34:15;97331.72;;;13.28;57.84
28267;BME280;15525;45.568;5.448;2023-04-21T05:36:41;97329.41;;;13.13;58.28
28267;BME280;15525;45.568;5.448;2023-04-21T05:39:06;97344.28;;;13.19;58.17
28267;BME280;15525;45.568;5.448;2023-04-21T05:41:32;97351.84;;;13.17;58.36
28267;BME280;15525;45.568;5.448;2023-04-21T05:43:57;97346.41;;;13.08;58.15
28267;BME280;15525;45.568;5.448;2023-04-21T05:46:23;97362.00;;;13.20;58.00
28267;BME280;15525;45.568;5.448;2023-04-21T05:48:48;97384.56;;;13.32;58.15
28267;BME280;15525;45.568;5.448;2023-04-21T05:51:14;97368.84;;;13.39;58.06
28267;BME280;15525;45.568;5.448;2023-04-21T05:53:40;97358.78;;;13.45;58.36
28267;BME280;15525;45.568;5.448;2023-04-21T05:56:11;97347.81;;;13.41;58.55
28267;BME280;15525;45.568;5.448;2023-04-21T05:58:37;97377.78;;;13.35;58.45
28267;BME280;15525;45.568;5.448;2023-04-21T06:01:03;97384.34;;;13.42;58.54
28267;BME280;15525;45.568;5.448;2023-04-21T06:03:32;97371.09;;;13.46;58.78
28267;BME280;15525;45.568;5.448;2023-04-21T06:06:02;97339.22;;;13.17;59.14
28267;BME280;15525;45.568;5.448;2023-04-21T06:08:28;97314.75;;;13.05;59.18
28267;BME280;15525;45.568;5.448;2023-04-21T06:10:53;97309.59;;;13.09;59.23
28267;BME280;15525;45.568;5.448;2023-04-21T06:13:19;97362.34;;;13.40;58.87
28267;BME280;15525;45.568;5.448;2023-04-21T06:15:44;97335.09;;;12.84;59.77
28267;BME280;15525;45.568;5.448;2023-04-21T06:18:10;97317.38;;;12.97;59.63
28267;BME280;15525;45.568;5.448;2023-04-21T06:20:35;97285.75;;;12.80;59.59
28267;BME280;15525;45.568;5.448;2023-04-21T06:23:01;97341.34;;;13.07;59.85
28267;BME280;15525;45.568;5.448;2023-04-21T06:25:26;97336.47;;;13.09;59.62
28267;BME280;15525;45.568;5.448;2023-04-21T06:27:52;97357.09;;;13.35;59.43
28267;BME280;15525;45.568;5.448;2023-04-21T06:30:17;97349.03;;;13.35;59.75
28267;BME280;15525;45.568;5.448;2023-04-21T06:32:43;97300.72;;;13.08;59.81
28267;BME280;15525;45.568;5.448;2023-04-21T06:35:10;97301.59;;;13.17;59.90
28267;BME280;15525;45.568;5.448;2023-04-21T06:37:35;97303.56;;;13.25;60.17
28267;BME280;15525;45.568;5.448;2023-04-21T06:40:01;97321.03;;;13.36;60.06
28267;BME280;15525;45.568;5.448;2023-04-21T06:42:26;97329.81;;;13.28;59.81
28267;BME280;15525;45.568;5.448;2023-04-21T06:44:51;97355.69;;;13.38;60.47
28267;BME280;15525;45.568;5.448;2023-04-21T06:47:17;97375.09;;;13.35;60.10
28267;BME280;15525;45.568;5.448;2023-04-21T06:49:43;97324.78;;;13.13;60.84
28267;BME280;15525;45.568;5.448;2023-04-21T06:52:08;97354.41;;;13.35;60.46
28267;BME280;15525;45.568;5.448;2023-04-21T06:54:34;97350.50;;;13.41;60.29
28267;BME280;15525;45.568;5.448;2023-04-21T06:56:59;97356.97;;;13.40;60.63
28267;BME280;15525;45.568;5.448;2023-04-21T06:59:24;97333.25;;;13.20;60.93
28267;BME280;15525;45.568;5.448;2023-04-21T07:01:50;97339.00;;;13.27;60.71
28267;BME280;15525;45.568;5.448;2023-04-21T07:04:19;97361.38;;;13.36;61.18
28267;BME280;15525;45.568;5.448;2023-04-21T07:06:45;97346.97;;;13.54;60.50
28267;BME280;15525;45.568;5.448;2023-04-21T07:09:11;97353.75;;;13.74;60.57
28267;BME280;15525;45.568;5.448;2023-04-21T07:11:36;97334.00;;;13.78;60.10
28267;BME280;15525;45.568;5.448;2023-04-21T07:14:02;97332.03;;;13.92;60.47
28267;BME280;15525;45.568;5.448;2023-04-21T07:16:28;97338.53;;;13.91;60.25
28267;BME280;15525;45.568;5.448;2023-04-21T07:18:53;97335.22;;;13.94;60.11
28267;BME280;15525;45.568;5.448;2023-04-21T07:21:19;97350.16;;;14.31;59.79
28267;BME280;15525;45.568;5.448;2023-04-21T07:23:44;97343.72;;;14.40;59.73
28267;BME280;15525;45.568;5.448;2023-04-21T07:26:09;97304.50;;;14.17;59.87
28267;BME280;15525;45.568;5.448;2023-04-21T07:28:38;97318.84;;;14.35;59.63
28267;BME280;15525;45.568;5.448;2023-04-21T07:31:07;97328.25;;;14.54;59.95
28267;BME280;15525;45.568;5.448;2023-04-21T07:33:33;97336.22;;;14.68;59.92
28267;BME280;15525;45.568;5.448;2023-04-21T07:35:59;97340.19;;;14.70;59.77
28267;BME280;15525;45.568;5.448;2023-04-21T07:38:24;97290.56;;;14.54;59.34
28267;BME280;15525;45.568;5.448;2023-04-21T07:40:50;97324.53;;;14.72;59.49
28267;BME280;15525;45.568;5.448;2023-04-21T07:43:16;97356.47;;;15.04;59.58
28267;BME280;15525;45.568;5.448;2023-04-21T07:45:42;97318.59;;;15.26;58.98
28267;BME280;15525;45.568;5.448;2023-04-21T07:48:07;97337.97;;;15.88;58.05
28267;BME280;15525;45.568;5.448;2023-04-21T07:50:33;97319.00;;;16.13;57.29
28267;BME280;15525;45.568;5.448;2023-04-21T07:53:01;97314.81;;;16.41;57.07
28267;BME280;15525;45.568;5.448;2023-04-21T07:55:27;97332.41;;;16.47;57.59
28267;BME280;15525;45.568;5.448;2023-04-21T07:57:53;97322.97;;;16.07;57.85
28267;BME280;15525;45.568;5.448;2023-04-21T08:00:19;97316.53;;;15.74;58.46
28267;BME280;15525;45.568;5.448;2023-04-21T08:02:45;97330.47;;;15.93;58.09
28267;BME280;15525;45.568;5.448;2023-04-21T08:05:10;97347.41;;;16.19;58.07
28267;BME280;15525;45.568;5.448;2023-04-21T08:07:36;97342.78;;;16.28;58.01
28267;BME280;15525;45.568;5.448;2023-04-21T08:10:01;97342.31;;;16.26;57.79
28267;BME280;15525;45.568;5.448;2023-04-21T08:12:28;97325.84;;;16.11;58.26
28267;BME280;15525;45.568;5.448;2023-04-21T08:14:53;97324.06;;;16.23;57.78
28267;BME280;15525;45.568;5.448;2023-04-21T08:17:19;97320.25;;;16.99;56.41
28267;BME280;15525;45.568;5.448;2023-04-21T08:19:44;97338.16;;;17.53;55.60
28267;BME280;15525;45.568;5.448;2023-04-21T08:22:09;97331.25;;;17.35;55.78
28267;BME280;15525;45.568;5.448;2023-04-21T08:24:35;97331.81;;;17.00;56.72
28267;BME280;15525;45.568;5.448;2023-04-21T08:27:00;97338.78;;;16.80;56.96
28267;BME280;15525;45.568;5.448;2023-04-21T08:29:28;97346.69;;;16.56;57.54
28267;BME280;15525;45.568;5.448;2023-04-21T08:31:54;97318.75;;;16.44;57.83
28267;BME280;15525;45.568;5.448;2023-04-21T08:34:20;97341.19;;;17.02;56.19
28267;BME280;15525;45.568;5.448;2023-04-21T08:36:45;97323.81;;;17.12;55.76
28267;BME280;15525;45.568;5.448;2023-04-21T08:39:13;97336.63;;;17.23;55.63
28267;BME280;15525;45.568;5.448;2023-04-21T08:41:38;97359.13;;;17.97;54.59
28267;BME280;15525;45.568;5.448;2023-04-21T08:44:10;97327.03;;;17.87;54.29
28267;BME280;15525;45.568;5.448;2023-04-21T08:46:38;97365.63;;;18.61;53.45
28267;BME280;15525;45.568;5.448;2023-04-21T08:49:04;97334.69;;;18.86;52.65
28267;BME280;15525;45.568;5.448;2023-04-21T08:51:30;97350.84;;;19.19;52.12
28267;BME280;15525;45.568;5.448;2023-04-21T08:53:56;97352.19;;;19.01;52.58
28267;BME280;15525;45.568;5.448;2023-04-21T08:56:25;97354.03;;;19.21;52.17
28267;BME280;15525;45.568;5.448;2023-04-21T08:58:50;97364.72;;;19.53;52.02
28267;BME280;15525;45.568;5.448;2023-04-21T09:01:16;97349.00;;;19.47;51.98
28267;BME280;15525;45.568;5.448;2023-04-21T09:03:41;97360.63;;;19.59;51.78
28267;BME280;15525;45.568;5.448;2023-04-21T09:06:08;97350.13;;;19.85;51.03
28267;BME280;15525;45.568;5.448;2023-04-21T09:08:36;97368.72;;;20.38;50.44
28267;BME280;15525;45.568;5.448;2023-04-21T09:11:03;97354.63;;;20.64;49.99
28267;BME280;15525;45.568;5.448;2023-04-21T09:13:30;97354.44;;;20.57;49.98
28267;BME280;15525;45.568;5.448;2023-04-21T09:15:57;97350.28;;;20.78;49.61
28267;BME280;15525;45.568;5.448;2023-04-21T09:18:25;97346.63;;;20.71;49.77
28267;BME280;15525;45.568;5.448;2023-04-21T09:21:13;97337.75;;;20.89;49.25
28267;BME280;15525;45.568;5.448;2023-04-21T09:23:48;97349.28;;;21.49;48.56
28267;BME280;15525;45.568;5.448;2023-04-21T09:26:15;97362.53;;;21.85;49.00
28267;BME280;15525;45.568;5.448;2023-04-21T09:28:48;97363.25;;;21.66;47.92
28267;BME280;15525;45.568;5.448;2023-04-21T09:31:19;97365.03;;;21.24;49.46
28267;BME280;15525;45.568;5.448;2023-04-21T09:33:52;97358.44;;;21.25;49.20
28267;BME280;15525;45.568;5.448;2023-04-21T09:36:22;97363.34;;;21.35;49.31
28267;BME280;15525;45.568;5.448;2023-04-21T09:39:00;97372.34;;;21.05;48.85
28267;BME280;15525;45.568;5.448;2023-04-21T09:41:26;97377.75;;;20.58;50.56
28267;BME280;15525;45.568;5.448;2023-04-21T09:43:51;97365.97;;;20.23;50.66
28267;BME280;15525;45.568;5.448;2023-04-21T09:46:18;97381.09;;;20.67;50.20
28267;BME280;15525;45.568;5.448;2023-04-21T09:48:45;97382.25;;;20.81;50.13
28267;BME280;15525;45.568;5.448;2023-04-21T09:51:12;97362.06;;;20.82;49.90
28267;BME280;15525;45.568;5.448;2023-04-21T09:53:39;97362.16;;;20.55;50.10
28267;BME280;15525;45.568;5.448;2023-04-21T09:56:15;97360.06;;;19.93;50.97
28267;BME280;15525;45.568;5.448;2023-04-21T09:58:50;97369.16;;;19.85;50.69
28267;BME280;15525;45.568;5.448;2023-04-21T10:01:16;97354.50;;;19.62;51.38
28267;BME280;15525;45.568;5.448;2023-04-21T10:03:43;97372.31;;;19.87;51.07
28267;BME280;15525;45.568;5.448;2023-04-21T10:06:10;97390.56;;;20.14;50.71
28267;BME280;15525;45.568;5.448;2023-04-21T10:08:36;97336.38;;;19.78;50.67
28267;BME280;15525;45.568;5.448;2023-04-21T10:11:02;97362.91;;;20.24;49.84
28267;BME280;15525;45.568;5.448;2023-04-21T10:13:28;97380.94;;;20.75;49.29
28267;BME280;15525;45.568;5.448;2023-04-21T10:16:05;97380.44;;;21.17;48.35
28267;BME280;15525;45.568;5.448;2023-04-21T10:18:37;97387.88;;;21.20;48.38
28267;BME280;15525;45.568;5.448;2023-04-21T10:21:04;97384.25;;;21.31;47.97
28267;BME280;15525;45.568;5.448;2023-04-21T10:29:03;97366.47;;;22.89;44.59
28267;BME280;15525;45.568;5.448;2023-04-21T10:31:33;97368.81;;;23.65;44.97
28267;BME280;15525;45.568;5.448;2023-04-21T10:39:31;97362.75;;;23.79;44.12
28267;BME280;15525;45.568;5.448;2023-04-21T10:47:28;97365.13;;;24.10;42.88
28267;BME280;15525;45.568;5.448;2023-04-21T10:49:56;97356.03;;;24.35;43.12
28267;BME280;15525;45.568;5.448;2023-04-21T10:52:30;97332.50;;;24.64;43.10
28267;BME280;15525;45.568;5.448;2023-04-21T10:55:05;97359.97;;;24.05;43.71
28267;BME280;15525;45.568;5.448;2023-04-21T10:57:32;97342.72;;;23.71;44.05
28267;BME280;15525;45.568;5.448;2023-04-21T10:59:58;97326.69;;;23.99;43.84
28267;BME280;15525;45.568;5.448;2023-04-21T11:02:25;97350.28;;;24.87;42.74
28267;BME280;15525;45.568;5.448;2023-04-21T11:04:52;97344.31;;;24.75;42.65
28267;BME280;15525;45.568;5.448;2023-04-21T11:07:19;97340.06;;;24.81;42.79
28267;BME280;15525;45.568;5.448;2023-04-21T11:09:47;97335.13;;;24.57;43.04
28267;BME280;15525;45.568;5.448;2023-04-21T11:12:14;97350.06;;;24.63;42.79
28267;BME280;15525;45.568;5.448;2023-04-21T11:14:43;97320.16;;;24.87;42.60
28267;BME280;15525;45.568;5.448;2023-04-21T11:17:13;97355.25;;;25.22;41.77
28267;BME280;15525;45.568;5.448;2023-04-21T11:19:39;97324.97;;;24.97;42.17
28267;BME280;15525;45.568;5.448;2023-04-21T11:22:04;97329.94;;;24.85;42.75
28267;BME280;15525;45.568;5.448;2023-04-21T11:24:31;97352.56;;;24.78;42.71
28267;BME280;15525;45.568;5.448;2023-04-21T11:26:56;97318.88;;;24.74;42.78
28267;BME280;15525;45.568;5.448;2023-04-21T11:29:23;97342.63;;;24.60;42.72
28267;BME280;15525;45.568;5.448;2023-04-21T11:31:49;97325.13;;;24.68;42.23
28267;BME280;15525;45.568;5.448;2023-04-21T11:34:15;97358.28;;;25.06;42.12
28267;BME280;15525;45.568;5.448;2023-04-21T11:36:45;97354.19;;;24.86;42.33
28267;BME280;15525;45.568;5.448;2023-04-21T11:39:13;97362.97;;;25.06;41.97
28267;BME280;15525;45.568;5.448;2023-04-21T11:41:47;97347.28;;;25.53;40.53
28267;BME280;15525;45.568;5.448;2023-04-21T11:44:16;97348.31;;;25.96;39.76
28267;BME280;15525;45.568;5.448;2023-04-21T11:46:54;97318.78;;;25.68;41.06
28267;BME280;15525;45.568;5.448;2023-04-21T11:49:23;97350.91;;;25.71;40.08
28267;BME280;15525;45.568;5.448;2023-04-21T11:51:49;97352.03;;;25.60;40.68
28267;BME280;15525;45.568;5.448;2023-04-21T11:54:16;97349.00;;;25.79;40.50
28267;BME280;15525;45.568;5.448;2023-04-21T11:56:45;97318.91;;;25.93;40.29
28267;BME280;15525;45.568;5.448;2023-04-21T11:59:15;97339.72;;;26.04;38.17
28267;BME280;15525;45.568;5.448;2023-04-21T12:01:47;97342.84;;;25.35;35.98
28267;BME280;15525;45.568;5.448;2023-04-21T12:06:41;97336.94;;;24.82;37.19
28267;BME280;15525;45.568;5.448;2023-04-21T12:09:06;97326.53;;;24.98;36.88
28267;BME280;15525;45.568;5.448;2023-04-21T12:11:33;97321.50;;;25.07;36.23
28267;BME280;15525;45.568;5.448;2023-04-21T12:14:00;97327.31;;;24.99;36.13
28267;BME280;15525;45.568;5.448;2023-04-21T12:16:27;97338.91;;;24.82;36.61
28267;BME280;15525;45.568;5.448;2023-04-21T12:18:54;97333.38;;;24.75;36.74
28267;BME280;15525;45.568;5.448;2023-04-21T12:21:20;97337.38;;;24.48;36.30
28267;BME280;15525;45.568;5.448;2023-04-21T12:23:45;97333.91;;;24.14;36.17
28267;BME280;15525;45.568;5.448;2023-04-21T12:26:11;97332.19;;;23.73;36.75
28267;BME280;15525;45.568;5.448;2023-04-21T12:28:37;97340.88;;;23.49;37.25
28267;BME280;15525;45.568;5.448;2023-04-21T12:31:03;97326.41;;;23.19;37.67
28267;BME280;15525;45.568;5.448;2023-04-21T12:33:28;97325.16;;;22.91;38.14
28267;BME280;15525;45.568;5.448;2023-04-21T12:35:54;97326.72;;;23.44;37.57
28267;BME280;15525;45.568;5.448;2023-04-21T12:38:19;97332.44;;;23.09;37.83
28267;BME280;15525;45.568;5.448;2023-04-21T12:40:45;97325.16;;;23.17;37.94
28267;BME280;15525;45.568;5.448;2023-04-21T12:43:10;97316.22;;;22.94;38.39
28267;BME280;15525;45.568;5.448;2023-04-21T12:45:36;97337.81;;;23.02;38.16
28267;BME280;15525;45.568;5.448;2023-04-21T12:48:01;97331.06;;;22.70;38.88
28267;BME280;15525;45.568;5.448;2023-04-21T12:50:29;97349.63;;;23.10;38.67
28267;BME280;15525;45.568;5.448;2023-04-21T12:52:54;97311.28;;;23.03;38.64
28267;BME280;15525;45.568;5.448;2023-04-21T12:55:21;97328.44;;;23.26;38.96
28267;BME280;15525;45.568;5.448;2023-04-21T12:57:46;97344.41;;;23.50;38.50
28267;BME280;15525;45.568;5.448;2023-04-21T13:00:12;97337.13;;;23.09;39.02
28267;BME280;15525;45.568;5.448;2023-04-21T13:02:39;97327.38;;;23.34;38.48
28267;BME280;15525;45.568;5.448;2023-04-21T13:05:05;97338.22;;;23.27;38.56
28267;BME280;15525;45.568;5.448;2023-04-21T13:07:32;97333.66;;;23.12;38.94
28267;BME280;15525;45.568;5.448;2023-04-21T13:09:58;97327.13;;;23.72;37.70
28267;BME280;15525;45.568;5.448;2023-04-21T13:12:23;97313.59;;;23.53;38.03
28267;BME280;15525;45.568;5.448;2023-04-21T13:14:49;97321.78;;;23.82;38.04